createdAt,value
2023-04-01T00:01:22.076Z,7.70
2023-04-01T00:03:49.371Z,7.70
2023-04-01T00:06:19.019Z,7.70
2023-04-01T00:08:46.878Z,7.60
2023-04-01T00:11:14.260Z,7.60
2023-04-01T00:13:41.430Z,7.60
2023-04-01T00:16:19.821Z,7.60
2023-04-01T00:18:48.616Z,7.60
2023-04-01T00:21:16.816Z,7.60
2023-04-01T00:23:44.718Z,7.50
2023-04-01T00:26:13.254Z,7.50
2023-04-01T00:28:40.487Z,7.50
2023-04-01T00:31:09.097Z,7.50
2023-04-01T00:33:36.627Z,7.50
2023-04-01T00:36:30.020Z,7.50
2023-04-01T00:38:58.890Z,7.40
2023-04-01T00:41:27.186Z,7.40
2023-04-01T00:43:53.996Z,7.40
2023-04-01T00:46:22.241Z,7.30
2023-04-01T00:48:53.462Z,7.30
2023-04-01T00:51:27.011Z,7.40
2023-04-01T00:53:56.697Z,7.30
2023-04-01T00:56:28.358Z,7.30
2023-04-01T00:59:01.294Z,7.30
2023-04-01T01:01:30.757Z,7.30
2023-04-01T01:03:57.716Z,7.30
2023-04-01T01:06:24.828Z,7.30
2023-04-01T01:09:00.583Z,7.40
2023-04-01T01:11:44.103Z,7.40
2023-04-01T01:14:17.471Z,7.40
2023-04-01T01:16:51.508Z,7.50
2023-04-01T01:19:51.242Z,7.50
2023-04-01T01:22:47.502Z,7.50
2023-04-01T01:25:17.000Z,7.40
2023-04-01T01:27:50.715Z,7.50
2023-04-01T01:30:37.535Z,7.50
2023-04-01T01:33:07.182Z,7.50
2023-04-01T01:35:41.497Z,7.50
2023-04-01T01:38:14.425Z,7.50
2023-04-01T01:40:46.808Z,7.50
2023-04-01T01:43:18.492Z,7.50
2023-04-01T01:45:49.420Z,7.50
2023-04-01T01:48:17.957Z,7.40
2023-04-01T01:50:46.522Z,7.40
2023-04-01T01:53:14.761Z,7.30
2023-04-01T01:55:44.739Z,7.30
2023-04-01T01:58:28.421Z,7.40
2023-04-01T02:00:59.889Z,7.40
2023-04-01T02:03:29.204Z,7.50
2023-04-01T02:05:59.269Z,7.50
2023-04-01T02:08:40.087Z,7.50
2023-04-01T02:11:10.747Z,7.60
2023-04-01T02:13:46.783Z,7.60
2023-04-01T02:16:22.034Z,7.60
2023-04-01T02:18:54.068Z,7.60
2023-04-01T02:21:23.442Z,7.50
2023-04-01T02:23:51.467Z,7.60
2023-04-01T02:26:18.586Z,7.50
2023-04-01T02:28:47.336Z,7.50
2023-04-01T02:31:15.641Z,7.50
2023-04-01T02:33:42.847Z,7.50
2023-04-01T02:36:15.629Z,7.50
2023-04-01T02:38:44.869Z,7.50
2023-04-01T02:41:12.706Z,7.60
2023-04-01T02:43:39.569Z,7.50
2023-04-01T02:46:06.542Z,7.50
2023-04-01T02:48:33.328Z,7.50
2023-04-01T02:51:00.149Z,7.50
2023-04-01T02:53:26.917Z,7.50
2023-04-01T02:55:53.689Z,7.50
2023-04-01T02:58:20.924Z,7.50
2023-04-01T03:00:47.845Z,7.50
2023-04-01T03:03:15.162Z,7.50
2023-04-01T03:05:42.302Z,7.50
2023-04-01T03:08:09.121Z,7.60
2023-04-01T03:10:36.073Z,7.50
2023-04-01T03:13:03.049Z,7.50
2023-04-01T03:15:29.832Z,7.50
2023-04-01T03:17:56.703Z,7.40
2023-04-01T03:20:23.494Z,7.40
2023-04-01T03:22:50.348Z,7.40
2023-04-01T03:25:17.147Z,7.40
2023-04-01T03:27:43.918Z,7.30
2023-04-01T03:30:11.059Z,7.30
2023-04-01T03:32:38.140Z,7.30
2023-04-01T03:35:05.966Z,7.30
2023-04-01T03:37:33.163Z,7.20
2023-04-01T03:39:59.947Z,7.10
2023-04-01T03:42:26.857Z,7.10
2023-04-01T03:44:53.820Z,7.10
2023-04-01T03:47:20.730Z,7.00
2023-04-01T03:49:47.565Z,7.00
2023-04-01T03:52:14.476Z,7.00
2023-04-01T03:54:41.278Z,6.90
2023-04-01T03:57:08.176Z,6.90
2023-04-01T03:59:35.668Z,6.90
2023-04-01T04:02:02.574Z,6.90
2023-04-01T04:04:29.555Z,6.90
2023-04-01T04:06:57.291Z,6.90
2023-04-01T04:09:24.491Z,6.90
2023-04-01T04:11:51.884Z,6.90
2023-04-01T04:14:18.759Z,6.80
2023-04-01T04:16:45.636Z,6.80
2023-04-01T04:19:12.568Z,6.80
2023-04-01T04:21:41.512Z,6.80
2023-04-01T04:24:08.870Z,6.80
2023-04-01T04:26:35.982Z,6.90
2023-04-01T04:29:02.919Z,7.00
2023-04-01T04:31:30.112Z,7.00
2023-04-01T04:33:57.141Z,7.00
2023-04-01T04:36:24.044Z,7.00
2023-04-01T04:38:50.901Z,7.00
2023-04-01T04:41:19.112Z,7.00
2023-04-01T04:43:54.428Z,7.00
2023-04-01T04:46:22.206Z,7.10
2023-04-01T04:48:49.336Z,7.10
2023-04-01T04:51:20.288Z,7.20
2023-04-01T04:53:48.560Z,7.20
2023-04-01T04:56:20.993Z,7.20
2023-04-01T04:58:48.219Z,7.30
2023-04-01T05:01:17.180Z,7.30
2023-04-01T05:03:45.111Z,7.40
2023-04-01T05:06:14.768Z,7.40
2023-04-01T05:08:42.742Z,7.40
2023-04-01T05:11:18.691Z,7.50
2023-04-01T05:13:46.329Z,7.50
2023-04-01T05:16:15.833Z,7.50
2023-04-01T05:18:43.085Z,7.50
2023-04-01T05:21:12.687Z,7.50
2023-04-01T05:23:40.114Z,7.50
2023-04-01T05:26:09.171Z,7.60
2023-04-01T05:28:36.144Z,7.60
2023-04-01T05:31:04.523Z,7.70
2023-04-01T05:33:31.995Z,7.70
2023-04-01T05:36:14.318Z,7.80
2023-04-01T05:38:41.962Z,7.90
2023-04-01T05:41:08.854Z,7.90
2023-04-01T05:43:39.153Z,7.90
2023-04-01T05:46:06.091Z,8.00
2023-04-01T05:48:35.808Z,8.00
2023-04-01T05:51:04.271Z,8.00
2023-04-01T05:53:31.423Z,8.10
2023-04-01T05:55:58.231Z,8.10
2023-04-01T05:58:25.013Z,8.10
2023-04-01T06:01:05.912Z,8.10
2023-04-01T06:03:36.759Z,8.20
2023-04-01T06:06:04.455Z,8.20
2023-04-01T06:08:32.729Z,8.20
2023-04-01T06:11:14.636Z,8.20
2023-04-01T06:13:53.566Z,8.30
2023-04-01T06:16:32.766Z,8.30
2023-04-01T06:19:19.824Z,8.40
2023-04-01T06:22:03.425Z,8.40
2023-04-01T06:25:06.847Z,8.60
2023-04-01T06:27:45.093Z,8.90
2023-04-01T06:30:23.863Z,9.00
2023-04-01T06:33:02.241Z,9.20
2023-04-01T06:35:43.095Z,9.80
2023-04-01T06:38:26.074Z,10.00
2023-04-01T06:41:30.800Z,10.20
2023-04-01T06:44:21.929Z,10.20
2023-04-01T06:47:00.204Z,10.20
2023-04-01T06:49:57.163Z,10.30
2023-04-01T06:52:50.911Z,10.50
2023-04-01T06:55:17.892Z,11.10
2023-04-01T06:57:54.736Z,11.60
2023-04-01T07:00:42.345Z,12.10
2023-04-01T07:03:17.684Z,12.40
2023-04-01T07:05:45.607Z,12.10
2023-04-01T07:08:22.671Z,11.40
2023-04-01T07:10:57.881Z,11.20
2023-04-01T07:13:42.408Z,11.10
2023-04-01T07:16:21.612Z,10.40
2023-04-01T07:19:14.388Z,10.20
2023-04-01T07:21:45.420Z,10.80
2023-04-01T07:24:23.024Z,11.10
2023-04-01T07:26:55.340Z,11.60
2023-04-01T07:29:22.151Z,12.40
2023-04-01T07:32:20.068Z,12.70
2023-04-01T07:35:01.830Z,13.10
2023-04-01T07:37:31.652Z,12.30
2023-04-01T07:40:13.399Z,11.70
2023-04-01T07:43:18.112Z,11.40
2023-04-01T07:45:56.765Z,11.10
2023-04-01T07:48:43.611Z,11.10
2023-04-01T07:51:33.134Z,12.00
2023-04-01T07:54:22.968Z,12.40
2023-04-01T07:57:26.242Z,12.20
2023-04-01T08:00:08.533Z,11.50
2023-04-01T08:02:53.685Z,11.10
2023-04-01T08:05:28.479Z,10.90
2023-04-01T08:08:07.699Z,10.80
2023-04-01T08:11:01.563Z,10.70
2023-04-01T08:13:44.306Z,10.80
2023-04-01T08:16:42.144Z,10.70
2023-04-01T08:19:23.849Z,10.70
2023-04-01T08:21:53.798Z,10.60
2023-04-01T08:24:40.581Z,10.60
2023-04-01T08:27:22.597Z,11.00
2023-04-01T08:30:02.754Z,11.00
2023-04-01T08:32:43.416Z,11.10
2023-04-01T08:35:28.586Z,11.70
2023-04-01T08:38:01.039Z,12.80
2023-04-01T08:40:59.928Z,13.90
2023-04-01T08:43:56.037Z,13.90
2023-04-01T08:46:57.996Z,13.10
2023-04-01T08:49:42.736Z,12.80
2023-04-01T08:52:38.028Z,12.80
2023-04-01T08:55:22.652Z,12.40
2023-04-01T08:58:23.848Z,12.60
2023-04-01T09:00:53.446Z,12.90
2023-04-01T09:03:53.348Z,12.60
2023-04-01T09:06:44.638Z,12.70
2023-04-01T09:09:48.339Z,13.60
2023-04-01T09:12:32.906Z,14.70
2023-04-01T09:15:21.415Z,15.60
2023-04-01T09:18:22.401Z,15.60
2023-04-01T09:21:33.258Z,15.10
2023-04-01T09:24:45.119Z,13.90
2023-04-01T09:27:32.041Z,13.00
2023-04-01T09:30:07.857Z,12.60
2023-04-01T09:33:00.384Z,12.60
2023-04-01T09:35:57.535Z,12.70
2023-04-01T09:38:32.795Z,12.90
2023-04-01T09:41:28.118Z,13.10
2023-04-01T09:44:04.348Z,13.10
2023-04-01T09:46:43.844Z,13.20
2023-04-01T09:49:27.819Z,13.80
2023-04-01T09:51:57.541Z,13.90
2023-04-01T09:54:43.053Z,14.20
2023-04-01T09:57:34.371Z,14.10
2023-04-01T10:00:25.539Z,13.80
2023-04-01T10:03:11.208Z,13.60
2023-04-01T10:05:38.005Z,13.40
2023-04-01T10:08:20.678Z,13.30
2023-04-01T10:11:08.546Z,13.40
2023-04-01T10:14:08.850Z,13.30
2023-04-01T10:16:44.273Z,13.10
2023-04-01T10:19:14.327Z,12.80
2023-04-01T10:22:18.665Z,12.80
2023-04-01T10:25:00.945Z,12.90
2023-04-01T10:27:52.524Z,13.00
2023-04-01T10:30:43.170Z,13.10
2023-04-01T10:33:35.036Z,13.10
2023-04-01T10:36:07.812Z,12.90
2023-04-01T10:38:58.734Z,12.80
2023-04-01T10:41:48.090Z,12.80
2023-04-01T10:44:29.958Z,12.80
2023-04-01T10:47:26.311Z,12.50
2023-04-01T10:50:34.332Z,12.30
2023-04-01T10:53:05.478Z,12.20
2023-04-01T10:55:36.732Z,12.10
2023-04-01T10:58:09.438Z,12.00
2023-04-01T11:00:55.056Z,11.80
2023-04-01T11:03:33.854Z,11.70
2023-04-01T11:06:41.706Z,11.60
2023-04-01T11:09:32.957Z,11.50
2023-04-01T11:12:48.745Z,11.40
2023-04-01T11:15:38.182Z,11.50
2023-04-01T11:18:25.957Z,11.40
2023-04-01T11:21:24.773Z,11.50
2023-04-01T11:24:14.950Z,11.80
2023-04-01T11:26:59.788Z,12.00
2023-04-01T11:29:53.198Z,12.50
2023-04-01T11:32:47.148Z,12.70
2023-04-01T11:35:51.661Z,12.40
2023-04-01T11:38:48.314Z,11.50
2023-04-01T11:41:36.093Z,10.90
2023-04-01T11:44:20.122Z,10.50
2023-04-01T11:47:21.836Z,10.40
2023-04-01T11:50:16.354Z,10.20
2023-04-01T11:53:07.897Z,10.20
2023-04-01T11:55:43.512Z,9.90
2023-04-01T11:58:24.460Z,9.60
2023-04-01T12:01:15.821Z,9.40
2023-04-01T12:03:48.711Z,9.30
2023-04-01T12:06:57.183Z,9.30
2023-04-01T12:09:57.719Z,9.40
2023-04-01T12:12:38.229Z,9.30
2023-04-01T12:15:44.520Z,9.20
2023-04-01T12:18:49.571Z,9.10
2023-04-01T12:21:26.432Z,9.00
2023-04-01T12:24:49.931Z,9.00
2023-04-01T12:27:25.811Z,9.00
2023-04-01T12:30:02.328Z,8.90
2023-04-01T12:32:36.994Z,8.90
2023-04-01T12:35:12.137Z,8.80
2023-04-01T12:38:06.501Z,8.80
2023-04-01T12:40:48.571Z,8.80
2023-04-01T12:43:36.562Z,8.80
2023-04-01T12:46:43.884Z,8.80
2023-04-01T12:49:16.577Z,8.80
2023-04-01T12:52:04.838Z,8.70
2023-04-01T12:54:52.873Z,8.70
2023-04-01T12:57:50.992Z,8.70
2023-04-01T13:00:33.178Z,8.70
2023-04-01T13:03:18.737Z,8.70
2023-04-01T13:06:18.020Z,8.70
2023-04-01T13:09:23.304Z,8.80
2023-04-01T13:12:01.872Z,8.80
2023-04-01T13:14:34.658Z,8.80
2023-04-01T13:17:29.306Z,8.80
2023-04-01T13:20:06.348Z,8.80
2023-04-01T13:22:56.349Z,8.80
2023-04-01T13:25:40.206Z,8.80
2023-04-01T13:28:28.239Z,8.80
2023-04-01T13:31:11.105Z,8.80
2023-04-01T13:33:54.473Z,8.80
2023-04-01T13:36:34.510Z,8.80
2023-04-01T13:39:10.355Z,8.90
2023-04-01T13:42:00.886Z,8.90
2023-04-01T13:44:47.924Z,8.90
2023-04-01T13:47:36.568Z,8.80
2023-04-01T13:50:18.584Z,8.80
2023-04-01T13:53:22.505Z,8.80
2023-04-01T13:56:28.416Z,8.90
2023-04-01T13:59:13.552Z,8.90
2023-04-01T14:02:18.958Z,9.10
2023-04-01T14:05:08.556Z,9.20
2023-04-01T14:07:53.699Z,9.30
2023-04-01T14:10:36.116Z,9.30
2023-04-01T14:13:14.963Z,9.20
2023-04-01T14:15:41.803Z,9.20
2023-04-01T14:18:25.032Z,9.20
2023-04-01T14:21:36.341Z,9.20
2023-04-01T14:24:03.140Z,9.30
2023-04-01T14:26:36.077Z,9.30
2023-04-01T14:29:18.054Z,9.40
2023-04-01T14:32:08.859Z,9.40
2023-04-01T14:34:44.678Z,9.40
2023-04-01T14:37:24.244Z,9.50
2023-04-01T14:40:24.196Z,9.60
2023-04-01T14:43:02.728Z,9.70
2023-04-01T14:45:32.924Z,9.70
2023-04-01T14:48:08.724Z,9.80
2023-04-01T14:50:48.872Z,9.90
2023-04-01T14:53:25.344Z,9.80
2023-04-01T14:55:56.248Z,9.80
2023-04-01T14:58:28.359Z,9.80
2023-04-01T15:01:18.490Z,9.80
2023-04-01T15:04:00.403Z,9.80
2023-04-01T15:07:12.199Z,9.80
2023-04-01T15:09:52.820Z,9.80
2023-04-01T15:12:45.817Z,9.80
2023-04-01T15:15:37.233Z,9.70
2023-04-01T15:18:14.058Z,9.50
2023-04-01T15:20:57.312Z,9.50
2023-04-01T15:24:01.946Z,9.50
2023-04-01T15:26:28.809Z,9.50
2023-04-01T15:29:29.516Z,9.50
2023-04-01T15:32:18.145Z,9.50
2023-04-01T15:35:04.300Z,9.50
2023-04-01T15:37:43.715Z,9.50
2023-04-01T15:40:38.474Z,9.50
2023-04-01T15:43:24.235Z,9.50
2023-04-01T15:46:14.321Z,9.70
2023-04-01T15:48:59.521Z,9.60
2023-04-01T15:52:11.239Z,9.70
2023-04-01T15:55:12.994Z,9.80
2023-04-01T15:58:29.765Z,10.00
2023-04-01T16:01:17.461Z,10.10
2023-04-01T16:04:21.474Z,10.10
2023-04-01T16:07:00.505Z,10.00
2023-04-01T16:09:51.433Z,10.00
2023-04-01T16:12:51.038Z,10.10
2023-04-01T16:15:56.436Z,10.10
2023-04-01T16:18:35.493Z,10.10
2023-04-01T16:21:33.091Z,10.30
2023-04-01T16:24:15.498Z,10.30
2023-04-01T16:27:26.316Z,10.20
2023-04-01T16:30:41.594Z,10.10
2023-04-01T16:33:14.454Z,10.00
2023-04-01T16:35:55.324Z,9.90
2023-04-01T16:38:30.577Z,9.90
2023-04-01T16:41:13.005Z,9.80
2023-04-01T16:43:47.429Z,9.80
2023-04-01T16:46:33.021Z,9.70
2023-04-01T16:49:38.816Z,9.70
2023-04-01T16:52:16.999Z,9.70
2023-04-01T16:55:17.728Z,9.70
2023-04-01T16:57:47.811Z,9.60
2023-04-01T17:00:17.529Z,9.60
2023-04-01T17:02:57.120Z,9.60
2023-04-01T17:05:41.055Z,9.50
2023-04-01T17:08:26.374Z,9.50
2023-04-01T17:11:02.343Z,9.40
2023-04-01T17:13:55.870Z,9.40
2023-04-01T17:17:03.698Z,9.40
2023-04-01T17:20:04.769Z,9.30
2023-04-01T17:22:40.778Z,9.30
2023-04-01T17:25:37.366Z,9.30
2023-04-01T17:28:13.142Z,9.20
2023-04-01T17:30:50.783Z,9.30
2023-04-01T17:33:32.687Z,9.30
2023-04-01T17:36:29.221Z,9.20
2023-04-01T17:39:02.078Z,9.20
2023-04-01T17:41:32.037Z,9.20
2023-04-01T17:44:04.638Z,9.20
2023-04-01T17:46:46.672Z,9.20
2023-04-01T17:49:31.714Z,9.20
2023-04-01T17:52:09.497Z,9.10
2023-04-01T17:54:55.601Z,9.10
2023-04-01T17:57:41.717Z,9.10
2023-04-01T18:00:17.073Z,9.20
2023-04-01T18:03:20.158Z,9.20
2023-04-01T18:06:15.007Z,9.10
2023-04-01T18:09:07.536Z,9.20
2023-04-01T18:11:53.612Z,9.20
2023-04-01T18:14:32.571Z,9.20
2023-04-01T18:17:17.973Z,9.20
2023-04-01T18:20:27.819Z,9.10
2023-04-01T18:22:58.248Z,9.20
2023-04-01T18:25:40.764Z,9.20
2023-04-01T18:28:31.536Z,9.10
2023-04-01T18:31:06.841Z,9.20
2023-04-01T18:33:48.777Z,9.20
2023-04-01T18:36:42.391Z,9.10
2023-04-01T18:39:25.512Z,9.10
2023-04-01T18:42:19.439Z,9.00
2023-04-01T18:44:55.006Z,9.00
2023-04-01T18:48:06.168Z,9.00
2023-04-01T18:50:41.980Z,8.90
2023-04-01T18:53:37.466Z,9.00
2023-04-01T18:56:08.118Z,9.00
2023-04-01T18:58:36.454Z,8.90
2023-04-01T19:01:27.345Z,8.90
2023-04-01T19:04:22.720Z,8.90
2023-04-01T19:07:01.652Z,8.90
2023-04-01T19:09:33.263Z,8.90
2023-04-01T19:12:08.677Z,8.80
2023-04-01T19:15:02.057Z,8.80
2023-04-01T19:17:43.805Z,8.80
2023-04-01T19:20:16.839Z,8.70
2023-04-01T19:23:06.522Z,8.70
2023-04-01T19:25:51.474Z,8.70
2023-04-01T19:28:53.044Z,8.60
2023-04-01T19:31:35.241Z,8.60
2023-04-01T19:34:28.756Z,8.50
2023-04-01T19:37:05.878Z,8.50
2023-04-01T19:40:03.291Z,8.40
2023-04-01T19:43:01.852Z,8.40
2023-04-01T19:45:37.842Z,8.30
2023-04-01T19:48:13.471Z,8.30
2023-04-01T19:51:00.956Z,8.20
2023-04-01T19:54:13.198Z,8.20
2023-04-01T19:56:51.256Z,8.10
2023-04-01T19:59:32.080Z,8.10
2023-04-01T20:02:21.927Z,8.00
2023-04-01T20:04:54.221Z,8.00
2023-04-01T20:07:25.945Z,7.90
2023-04-01T20:10:00.083Z,7.90
2023-04-01T20:12:47.089Z,7.80
2023-04-01T20:15:40.791Z,7.80
2023-04-01T20:18:24.258Z,7.80
2023-04-01T20:20:58.857Z,7.70
2023-04-01T20:23:36.384Z,7.70
2023-04-01T20:26:09.471Z,7.70
2023-04-01T20:28:44.624Z,7.70
2023-04-01T20:31:29.983Z,7.70
2023-04-01T20:34:18.234Z,7.80
2023-04-01T20:37:09.425Z,7.80
2023-04-01T20:39:45.542Z,7.80
2023-04-01T20:42:36.804Z,7.80
2023-04-01T20:45:18.592Z,7.80
2023-04-01T20:48:13.143Z,7.80
2023-04-01T20:50:58.303Z,7.80
2023-04-01T20:53:30.654Z,7.80
2023-04-01T20:56:07.974Z,7.80
2023-04-01T20:58:58.969Z,7.80
2023-04-01T21:01:40.272Z,7.80
2023-04-01T21:04:11.120Z,7.80
2023-04-01T21:07:06.117Z,7.80
2023-04-01T21:09:38.721Z,7.70
2023-04-01T21:12:14.311Z,7.80
2023-04-01T21:15:08.915Z,7.70
2023-04-01T21:18:12.362Z,7.70
2023-04-01T21:20:39.095Z,7.70
2023-04-01T21:23:12.535Z,7.70
2023-04-01T21:25:54.444Z,7.70
2023-04-01T21:28:30.389Z,7.70
2023-04-01T21:31:12.518Z,7.70
2023-04-01T21:33:57.400Z,7.70
2023-04-01T21:36:39.110Z,7.70
2023-04-01T21:39:18.105Z,7.70
2023-04-01T21:41:44.920Z,7.70
2023-04-01T21:44:19.799Z,7.70
2023-04-01T21:46:52.433Z,7.70
2023-04-01T21:49:28.009Z,7.70
2023-04-01T21:51:57.754Z,7.70
2023-04-01T21:54:45.747Z,7.70
2023-04-01T21:57:28.076Z,7.70
2023-04-01T22:00:17.399Z,7.70
2023-04-01T22:03:24.302Z,7.70
2023-04-01T22:06:12.178Z,7.80
2023-04-01T22:09:19.241Z,7.80
2023-04-01T22:12:04.668Z,7.80
2023-04-01T22:14:48.800Z,7.80
2023-04-01T22:17:31.607Z,7.80
2023-04-01T22:20:31.496Z,7.80
2023-04-01T22:23:28.451Z,7.80
2023-04-01T22:26:10.866Z,7.90
2023-04-01T22:28:51.848Z,7.90
2023-04-01T22:31:27.551Z,7.80
2023-04-01T22:34:18.776Z,7.80
2023-04-01T22:36:57.170Z,7.90
2023-04-01T22:39:33.227Z,7.80
2023-04-01T22:42:27.518Z,7.90
2023-04-01T22:45:22.175Z,7.90
2023-04-01T22:48:22.358Z,7.90
2023-04-01T22:51:01.732Z,7.90
2023-04-01T22:53:53.276Z,7.90
2023-04-01T22:56:25.988Z,7.90
2023-04-01T22:59:00.889Z,7.90
2023-04-01T23:01:33.632Z,7.90
2023-04-01T23:04:04.454Z,7.90
2023-04-01T23:06:39.037Z,7.90
2023-04-01T23:09:15.636Z,7.90
2023-04-01T23:11:49.643Z,7.80
2023-04-01T23:14:34.470Z,7.80
2023-04-01T23:17:23.054Z,7.80
2023-04-01T23:20:11.769Z,7.70
2023-04-01T23:22:51.420Z,7.70
2023-04-01T23:25:39.166Z,7.70
2023-04-01T23:28:27.822Z,7.70
2023-04-01T23:30:55.044Z,7.70
2023-04-01T23:33:32.251Z,7.70
2023-04-01T23:36:06.906Z,7.70
2023-04-01T23:38:42.343Z,7.70
2023-04-01T23:41:18.744Z,7.70
2023-04-01T23:43:50.422Z,7.70
2023-04-01T23:46:17.604Z,7.70
2023-04-01T23:48:47.357Z,7.70
2023-04-01T23:51:27.224Z,7.60
2023-04-01T23:54:11.694Z,7.60
2023-04-01T23:56:56.145Z,7.60
2023-04-01T23:59:31.398Z,7.70
